sensor_id;sensor_type;location;lat;lon;timestamp;pressure;altitude;pressure_sealevel;temperature
19102;BMP280;9683;49.028;12.064;2023-05-19T00:01:07;97794.84;;;16.02
19102;BMP280;9683;49.028;12.064;2023-05-19T00:03:34;97796.22;;;16.05
19102;BMP280;9683;49.028;12.064;2023-05-19T00:06:05;97792.97;;;16.03
19102;BMP280;9683;49.028;12.064;2023-05-19T00:08:33;97797.75;;;16.01
19102;BMP280;9683;49.028;12.064;2023-05-19T00:11:03;97786.94;;;15.96
19102;BMP280;9683;49.028;12.064;2023-05-19T00:13:30;97789.38;;;15.97
19102;BMP280;9683;49.028;12.064;2023-05-19T00:15:59;97786.69;;;15.97
19102;BMP280;9683;49.028;12.064;2023-05-19T00:18:25;97791.47;;;15.95
19102;BMP280;9683;49.028;12.064;2023-05-19T00:20:53;97785.78;;;15.92
19102;BMP280;9683;49.028;12.064;2023-05-19T00:23:20;97784.97;;;15.91
19102;BMP280;9683;49.028;12.064;2023-05-19T00:25:46;97791.16;;;15.92
19102;BMP280;9683;49.028;12.064;2023-05-19T00:28:13;97782.28;;;15.91
19102;BMP280;9683;49.028;12.064;2023-05-19T00:30:39;97777.41;;;15.88
19102;BMP280;9683;49.028;12.064;2023-05-19T00:33:07;97774.25;;;15.91
19102;BMP280;9683;49.028;12.064;2023-05-19T00:35:34;97778.47;;;15.87
19102;BMP280;9683;49.028;12.064;2023-05-19T00:38:00;97751.06;;;15.69
19102;BMP280;9683;49.028;12.064;2023-05-19T00:40:28;97775.22;;;15.85
19102;BMP280;9683;49.028;12.064;2023-05-19T00:42:55;97784.00;;;15.81
19102;BMP280;9683;49.028;12.064;2023-05-19T00:45:23;97767.91;;;15.81
19102;BMP280;9683;49.028;12.064;2023-05-19T00:47:50;97763.03;;;15.78
19102;BMP280;9683;49.028;12.064;2023-05-19T00:50:18;97767.09;;;15.80
19102;BMP280;9683;49.028;12.064;2023-05-19T00:52:44;97764.56;;;15.74
19102;BMP280;9683;49.028;12.064;2023-05-19T00:55:11;97759.19;;;15.74
19102;BMP280;9683;49.028;12.064;2023-05-19T00:57:39;97762.13;;;15.72
19102;BMP280;9683;49.028;12.064;2023-05-19T01:00:07;97757.81;;;15.71
19102;BMP280;9683;49.028;12.064;2023-05-19T01:02:34;97755.38;;;15.70
19102;BMP280;9683;49.028;12.064;2023-05-19T01:05:02;97749.34;;;15.63
19102;BMP280;9683;49.028;12.064;2023-05-19T01:07:32;97749.91;;;15.65
19102;BMP280;9683;49.028;12.064;2023-05-19T01:09:58;97747.13;;;15.59
19102;BMP280;9683;49.028;12.064;2023-05-19T01:12:25;97756.56;;;15.62
19102;BMP280;9683;49.028;12.064;2023-05-19T01:14:52;97753.88;;;15.62
19102;BMP280;9683;49.028;12.064;2023-05-19T01:17:23;97758.44;;;15.62
19102;BMP280;9683;49.028;12.064;2023-05-19T01:19:58;97761.59;;;15.58
19102;BMP280;9683;49.028;12.064;2023-05-19T01:22:46;97755.09;;;15.54
19102;BMP280;9683;49.028;12.064;2023-05-19T01:25:36;97756.41;;;15.52
19102;BMP280;9683;49.028;12.064;2023-05-19T01:28:25;97749.59;;;15.49
19102;BMP280;9683;49.028;12.064;2023-05-19T01:30:58;97719.50;;;15.31
19102;BMP280;9683;49.028;12.064;2023-05-19T01:33:27;97743.50;;;15.37
19102;BMP280;9683;49.028;12.064;2023-05-19T01:35:56;97757.22;;;15.41
19102;BMP280;9683;49.028;12.064;2023-05-19T01:38:24;97757.50;;;15.39
19102;BMP280;9683;49.028;12.064;2023-05-19T01:40:51;97748.84;;;15.37
19102;BMP280;9683;49.028;12.064;2023-05-19T01:43:22;97743.50;;;15.37
19102;BMP280;9683;49.028;12.064;2023-05-19T01:45:50;97755.25;;;15.36
19102;BMP280;9683;49.028;12.064;2023-05-19T01:48:18;97749.91;;;15.36
19102;BMP280;9683;49.028;12.064;2023-05-19T01:50:45;97752.84;;;15.35
19102;BMP280;9683;49.028;12.064;2023-05-19T01:53:12;97742.59;;;15.32
19102;BMP280;9683;49.028;12.064;2023-05-19T01:55:42;97746.56;;;15.29
19102;BMP280;9683;49.028;12.064;2023-05-19T01:58:14;97726.22;;;15.17
19102;BMP280;9683;49.028;12.064;2023-05-19T02:00:52;97736.81;;;15.23
19102;BMP280;9683;49.028;12.064;2023-05-19T02:03:32;97739.72;;;15.22
19102;BMP280;9683;49.028;12.064;2023-05-19T02:06:17;97745.09;;;15.22
19102;BMP280;9683;49.028;12.064;2023-05-19T02:08:50;97743.22;;;15.22
19102;BMP280;9683;49.028;12.064;2023-05-19T02:11:26;97676.34;;;14.87
19102;BMP280;9683;49.028;12.064;2023-05-19T02:13:55;97731.56;;;15.17
19102;BMP280;9683;49.028;12.064;2023-05-19T02:16:26;97732.88;;;15.14
19102;BMP280;9683;49.028;12.064;2023-05-19T02:18:54;97734.75;;;15.13
19102;BMP280;9683;49.028;12.064;2023-05-19T02:21:21;97738.69;;;15.11
19102;BMP280;9683;49.028;12.064;2023-05-19T02:23:49;97728.25;;;15.09
19102;BMP280;9683;49.028;12.064;2023-05-19T02:26:15;97722.28;;;15.07
19102;BMP280;9683;49.028;12.064;2023-05-19T02:28:42;97728.47;;;15.08
19102;BMP280;9683;49.028;12.064;2023-05-19T02:31:08;97729.50;;;15.07
19102;BMP280;9683;49.028;12.064;2023-05-19T02:33:35;97731.97;;;15.08
19102;BMP280;9683;49.028;12.064;2023-05-19T02:36:03;97726.59;;;15.08
19102;BMP280;9683;49.028;12.064;2023-05-19T02:38:30;97734.41;;;15.10
19102;BMP280;9683;49.028;12.064;2023-05-19T02:40:56;97727.41;;;15.09
19102;BMP280;9683;49.028;12.064;2023-05-19T02:43:23;97729.88;;;15.10
19102;BMP280;9683;49.028;12.064;2023-05-19T02:45:49;97723.91;;;15.08
19102;BMP280;9683;49.028;12.064;2023-05-19T02:48:16;97717.19;;;15.06
19102;BMP280;9683;49.028;12.064;2023-05-19T02:50:42;97724.97;;;15.07
19102;BMP280;9683;49.028;12.064;2023-05-19T02:53:10;97726.38;;;15.10
19102;BMP280;9683;49.028;12.064;2023-05-19T02:55:36;97728.94;;;15.05
19102;BMP280;9683;49.028;12.064;2023-05-19T02:58:03;97724.91;;;15.02
19102;BMP280;9683;49.028;12.064;2023-05-19T03:00:29;97721.63;;;15.00
19102;BMP280;9683;49.028;12.064;2023-05-19T03:02:56;97723.25;;;15.01
19102;BMP280;9683;49.028;12.064;2023-05-19T03:05:26;97717.56;;;14.98
19102;BMP280;9683;49.028;12.064;2023-05-19T03:07:53;97720.25;;;14.98
19102;BMP280;9683;49.028;12.064;2023-05-19T03:10:21;97678.75;;;14.72
19102;BMP280;9683;49.028;12.064;2023-05-19T03:12:48;97711.06;;;14.94
19102;BMP280;9683;49.028;12.064;2023-05-19T03:15:15;97716.16;;;14.95
19102;BMP280;9683;49.028;12.064;2023-05-19T03:17:42;97721.50;;;14.95
19102;BMP280;9683;49.028;12.064;2023-05-19T03:20:10;97715.00;;;14.91
19102;BMP280;9683;49.028;12.064;2023-05-19T03:22:36;97709.41;;;14.93
19102;BMP280;9683;49.028;12.064;2023-05-19T03:25:03;97708.97;;;14.84
19102;BMP280;9683;49.028;12.064;2023-05-19T03:27:31;97717.94;;;14.90
19102;BMP280;9683;49.028;12.064;2023-05-19T03:29:57;97720.75;;;14.83
19102;BMP280;9683;49.028;12.064;2023-05-19T03:32:24;97682.72;;;14.58
19102;BMP280;9683;49.028;12.064;2023-05-19T03:34:50;97728.56;;;14.85
19102;BMP280;9683;49.028;12.064;2023-05-19T03:37:17;97729.81;;;14.82
19102;BMP280;9683;49.028;12.064;2023-05-19T03:39:44;97731.94;;;14.80
19102;BMP280;9683;49.028;12.064;2023-05-19T03:42:10;97728.44;;;14.80
19102;BMP280;9683;49.028;12.064;2023-05-19T03:44:38;97731.34;;;14.78
19102;BMP280;9683;49.028;12.064;2023-05-19T03:47:05;97738.13;;;14.81
19102;BMP280;9683;49.028;12.064;2023-05-19T03:49:31;97730.09;;;14.81
19102;BMP280;9683;49.028;12.064;2023-05-19T03:51:58;97739.50;;;14.83
19102;BMP280;9683;49.028;12.064;2023-05-19T03:54:27;97736.34;;;14.86
19102;BMP280;9683;49.028;12.064;2023-05-19T03:56:54;97741.13;;;14.84
19102;BMP280;9683;49.028;12.064;2023-05-19T03:59:20;97739.03;;;14.86
19102;BMP280;9683;49.028;12.064;2023-05-19T04:01:49;97736.13;;;14.88
19102;BMP280;9683;49.028;12.064;2023-05-19T04:04:15;97740.09;;;14.85
19102;BMP280;9683;49.028;12.064;2023-05-19T04:06:42;97745.91;;;14.82
19102;BMP280;9683;49.028;12.064;2023-05-19T04:09:10;97740.56;;;14.82
19102;BMP280;9683;49.028;12.064;2023-05-19T04:11:38;97738.56;;;14.78
19102;BMP280;9683;49.028;12.064;2023-05-19T04:14:04;97710.44;;;14.63
19102;BMP280;9683;49.028;12.064;2023-05-19T04:16:31;97737.06;;;14.82
19102;BMP280;9683;49.028;12.064;2023-05-19T04:18:59;97740.31;;;14.84
19102;BMP280;9683;49.028;12.064;2023-05-19T04:21:25;97739.50;;;14.83
19102;BMP280;9683;49.028;12.064;2023-05-19T04:23:53;97733.31;;;14.83
19102;BMP280;9683;49.028;12.064;2023-05-19T04:26:20;97735.44;;;14.81
19102;BMP280;9683;49.028;12.064;2023-05-19T04:28:48;97733.47;;;14.76
19102;BMP280;9683;49.028;12.064;2023-05-19T04:31:15;97736.72;;;14.78
19102;BMP280;9683;49.028;12.064;2023-05-19T04:33:41;97730.19;;;14.74
19102;BMP280;9683;49.028;12.064;2023-05-19T04:36:09;97731.34;;;14.78
19102;BMP280;9683;49.028;12.064;2023-05-19T04:38:38;97733.59;;;14.81
19102;BMP280;9683;49.028;12.064;2023-05-19T04:41:05;97733.09;;;14.84
19102;BMP280;9683;49.028;12.064;2023-05-19T04:43:34;97732.63;;;14.87
19102;BMP280;9683;49.028;12.064;2023-05-19T04:46:01;97739.63;;;14.88
19102;BMP280;9683;49.028;12.064;2023-05-19T04:48:30;97733.22;;;14.89
19102;BMP280;9683;49.028;12.064;2023-05-19T04:50:57;97734.03;;;14.90
19102;BMP280;9683;49.028;12.064;2023-05-19T04:53:27;97725.63;;;14.86
19102;BMP280;9683;49.028;12.064;2023-05-19T04:55:53;97730.53;;;14.89
19102;BMP280;9683;49.028;12.064;2023-05-19T04:58:20;97729.94;;;14.87
19102;BMP280;9683;49.028;12.064;2023-05-19T05:00:49;97733.91;;;14.85
19102;BMP280;9683;49.028;12.064;2023-05-19T05:03:16;97733.09;;;14.84
19102;BMP280;9683;49.028;12.064;2023-05-19T05:05:42;97726.34;;;14.82
19102;BMP280;9683;49.028;12.064;2023-05-19T05:08:10;97735.28;;;14.87
19102;BMP280;9683;49.028;12.064;2023-05-19T05:10:43;97732.38;;;14.89
19102;BMP280;9683;49.028;12.064;2023-05-19T05:13:10;97729.44;;;14.90
19102;BMP280;9683;49.028;12.064;2023-05-19T05:15:37;97728.19;;;14.93
19102;BMP280;9683;49.028;12.064;2023-05-19T05:18:04;97725.50;;;14.93
19102;BMP280;9683;49.028;12.064;2023-05-19T05:20:31;97716.50;;;14.99
19102;BMP280;9683;49.028;12.064;2023-05-19T05:22:58;97716.03;;;15.02
19102;BMP280;9683;49.028;12.064;2023-05-19T05:25:26;97717.63;;;15.03
19102;BMP280;9683;49.028;12.064;2023-05-19T05:27:53;97725.78;;;15.08
19102;BMP280;9683;49.028;12.064;2023-05-19T05:30:20;97722.06;;;15.09
19102;BMP280;9683;49.028;12.064;2023-05-19T05:32:46;97719.94;;;15.11
19102;BMP280;9683;49.028;12.064;2023-05-19T05:35:13;97723.19;;;15.13
19102;BMP280;9683;49.028;12.064;2023-05-19T05:37:40;97722.97;;;15.14
19102;BMP280;9683;49.028;12.064;2023-05-19T05:40:07;97720.75;;;15.11
19102;BMP280;9683;49.028;12.064;2023-05-19T05:42:34;97696.03;;;14.93
19102;BMP280;9683;49.028;12.064;2023-05-19T05:45:02;97723.78;;;15.15
19102;BMP280;9683;49.028;12.064;2023-05-19T05:47:29;97720.63;;;15.18
19102;BMP280;9683;49.028;12.064;2023-05-19T05:49:56;97711.66;;;15.12
19102;BMP280;9683;49.028;12.064;2023-05-19T05:52:28;97711.16;;;15.15
19102;BMP280;9683;49.028;12.064;2023-05-19T05:54:55;97717.44;;;15.21
19102;BMP280;9683;49.028;12.064;2023-05-19T05:57:22;97727.69;;;15.24
19102;BMP280;9683;49.028;12.064;2023-05-19T05:59:49;97730.72;;;15.28
19102;BMP280;9683;49.028;12.064;2023-05-19T06:02:16;97720.06;;;15.33
19102;BMP280;9683;49.028;12.064;2023-05-19T06:04:43;97722.28;;;15.36
19102;BMP280;9683;49.028;12.064;2023-05-19T06:07:10;97719.94;;;15.39
19102;BMP280;9683;49.028;12.064;2023-05-19T06:09:36;97715.13;;;15.41
19102;BMP280;9683;49.028;12.064;2023-05-19T06:12:03;97720.03;;;15.44
19102;BMP280;9683;49.028;12.064;2023-05-19T06:14:30;97714.16;;;15.47
19102;BMP280;9683;49.028;12.064;2023-05-19T06:16:57;97713.72;;;15.50
19102;BMP280;9683;49.028;12.064;2023-05-19T06:19:25;97705.75;;;15.55
19102;BMP280;9683;49.028;12.064;2023-05-19T06:21:51;97710.53;;;15.53
19102;BMP280;9683;49.028;12.064;2023-05-19T06:24:18;97704.94;;;15.55
19102;BMP280;9683;49.028;12.064;2023-05-19T06:26:44;97712.97;;;15.55
19102;BMP280;9683;49.028;12.064;2023-05-19T06:29:11;97704.13;;;15.54
19102;BMP280;9683;49.028;12.064;2023-05-19T06:31:38;97709.00;;;15.57
19102;BMP280;9683;49.028;12.064;2023-05-19T06:34:04;97711.94;;;15.56
19102;BMP280;9683;49.028;12.064;2023-05-19T06:36:32;97718.69;;;15.58
19102;BMP280;9683;49.028;12.064;2023-05-19T06:38:59;97709.56;;;15.59
19102;BMP280;9683;49.028;12.064;2023-05-19T06:41:25;97715.50;;;15.62
19102;BMP280;9683;49.028;12.064;2023-05-19T06:43:52;97715.34;;;15.68
19102;BMP280;9683;49.028;12.064;2023-05-19T06:46:19;97720.81;;;15.73
19102;BMP280;9683;49.028;12.064;2023-05-19T06:48:45;97713.63;;;15.79
19102;BMP280;9683;49.028;12.064;2023-05-19T06:51:12;97707.44;;;15.78
19102;BMP280;9683;49.028;12.064;2023-05-19T06:53:41;97717.81;;;15.86
19102;BMP280;9683;49.028;12.064;2023-05-19T06:56:07;97714.84;;;15.88
19102;BMP280;9683;49.028;12.064;2023-05-19T06:58:34;97709.50;;;15.88
19102;BMP280;9683;49.028;12.064;2023-05-19T07:01:00;97707.13;;;15.91
19102;BMP280;9683;49.028;12.064;2023-05-19T07:03:27;97703.16;;;15.94
19102;BMP280;9683;49.028;12.064;2023-05-19T07:05:55;97711.28;;;15.99
19102;BMP280;9683;49.028;12.064;2023-05-19T07:08:21;97699.00;;;16.03
19102;BMP280;9683;49.028;12.064;2023-05-19T07:10:49;97697.19;;;16.09
19102;BMP280;9683;49.028;12.064;2023-05-19T07:13:16;97701.25;;;16.11
19102;BMP280;9683;49.028;12.064;2023-05-19T07:15:42;97698.06;;;16.14
19102;BMP280;9683;49.028;12.064;2023-05-19T07:18:09;97701.91;;;16.18
19102;BMP280;9683;49.028;12.064;2023-05-19T07:20:35;97691.16;;;16.18
19102;BMP280;9683;49.028;12.064;2023-05-19T07:23:02;97705.78;;;16.27
19102;BMP280;9683;49.028;12.064;2023-05-19T07:25:29;97696.41;;;16.30
19102;BMP280;9683;49.028;12.064;2023-05-19T07:27:57;97689.47;;;16.34
19102;BMP280;9683;49.028;12.064;2023-05-19T07:30:25;97697.06;;;16.37
19102;BMP280;9683;49.028;12.064;2023-05-19T07:32:51;97691.41;;;16.38
19102;BMP280;9683;49.028;12.064;2023-05-19T07:35:19;97692.53;;;16.42
19102;BMP280;9683;49.028;12.064;2023-05-19T07:37:46;97693.13;;;16.44
19102;BMP280;9683;49.028;12.064;2023-05-19T07:40:13;97687.25;;;16.47
19102;BMP280;9683;49.028;12.064;2023-05-19T07:42:39;97688.06;;;16.48
19102;BMP280;9683;49.028;12.064;2023-05-19T07:45:08;97691.88;;;16.52
19102;BMP280;9683;49.028;12.064;2023-05-19T07:47:35;97689.69;;;16.49
19102;BMP280;9683;49.028;12.064;2023-05-19T07:50:01;97686.81;;;16.56
19102;BMP280;9683;49.028;12.064;2023-05-19T07:52:28;97688.44;;;16.57
19102;BMP280;9683;49.028;12.064;2023-05-19T07:54:55;97692.28;;;16.61
19102;BMP280;9683;49.028;12.064;2023-05-19T07:57:21;97688.03;;;16.65
19102;BMP280;9683;49.028;12.064;2023-05-19T07:59:48;97691.59;;;16.70
19102;BMP280;9683;49.028;12.064;2023-05-19T08:02:16;97688.72;;;16.77
19102;BMP280;9683;49.028;12.064;2023-05-19T08:04:42;97685.28;;;16.81
19102;BMP280;9683;49.028;12.064;2023-05-19T08:07:09;97680.78;;;16.87
19102;BMP280;9683;49.028;12.064;2023-05-19T08:09:35;97680.81;;;16.92
19102;BMP280;9683;49.028;12.064;2023-05-19T08:12:02;97671.44;;;16.94
19102;BMP280;9683;49.028;12.064;2023-05-19T08:14:30;97680.38;;;17.00
19102;BMP280;9683;49.028;12.064;2023-05-19T08:16:57;97672.84;;;17.02
19102;BMP280;9683;49.028;12.064;2023-05-19T08:19:25;97671.59;;;17.10
19102;BMP280;9683;49.028;12.064;2023-05-19T08:21:52;97682.41;;;17.15
19102;BMP280;9683;49.028;12.064;2023-05-19T08:24:18;97679.19;;;17.18
19102;BMP280;9683;49.028;12.064;2023-05-19T08:26:45;97670.38;;;17.22
19102;BMP280;9683;49.028;12.064;2023-05-19T08:29:11;97677.13;;;17.25
19102;BMP280;9683;49.028;12.064;2023-05-19T08:31:38;97672.56;;;17.25
19102;BMP280;9683;49.028;12.064;2023-05-19T08:34:04;97671.00;;;17.29
19102;BMP280;9683;49.028;12.064;2023-05-19T08:36:32;97660.25;;;17.34
19102;BMP280;9683;49.028;12.064;2023-05-19T08:38:59;97662.69;;;17.36
19102;BMP280;9683;49.028;12.064;2023-05-19T08:41:26;97664.38;;;17.42
19102;BMP280;9683;49.028;12.064;2023-05-19T08:43:53;97652.28;;;17.45
19102;BMP280;9683;49.028;12.064;2023-05-19T08:46:20;97663.59;;;17.47
19102;BMP280;9683;49.028;12.064;2023-05-19T08:48:49;97661.72;;;17.47
19102;BMP280;9683;49.028;12.064;2023-05-19T08:51:23;97660.13;;;17.51
19102;BMP280;9683;49.028;12.064;2023-05-19T08:53:59;97620.22;;;17.38
19102;BMP280;9683;49.028;12.064;2023-05-19T08:56:28;97643.53;;;17.59
19102;BMP280;9683;49.028;12.064;2023-05-19T08:58:55;97641.16;;;17.63
19102;BMP280;9683;49.028;12.064;2023-05-19T09:01:24;97641.75;;;17.70
19102;BMP280;9683;49.028;12.064;2023-05-19T09:03:53;97644.47;;;17.75
19102;BMP280;9683;49.028;12.064;2023-05-19T09:06:20;97634.53;;;17.75
19102;BMP280;9683;49.028;12.064;2023-05-19T09:08:46;97633.19;;;17.78
19102;BMP280;9683;49.028;12.064;2023-05-19T09:11:14;97636.19;;;17.86
19102;BMP280;9683;49.028;12.064;2023-05-19T09:13:41;97627.88;;;17.88
19102;BMP280;9683;49.028;12.064;2023-05-19T09:16:08;97627.63;;;17.95
19102;BMP280;9683;49.028;12.064;2023-05-19T09:18:37;97643.56;;;18.01
19102;BMP280;9683;49.028;12.064;2023-05-19T09:21:04;97631.47;;;18.04
19102;BMP280;9683;49.028;12.064;2023-05-19T09:23:32;97637.94;;;18.08
19102;BMP280;9683;49.028;12.064;2023-05-19T09:26:01;97627.69;;;18.10
19102;BMP280;9683;49.028;12.064;2023-05-19T09:28:32;97625.31;;;18.13
19102;BMP280;9683;49.028;12.064;2023-05-19T09:31:00;97626.94;;;18.19
19102;BMP280;9683;49.028;12.064;2023-05-19T09:33:27;97629.69;;;18.24
19102;BMP280;9683;49.028;12.064;2023-05-19T09:35:54;97629.97;;;18.28
19102;BMP280;9683;49.028;12.064;2023-05-19T09:38:22;97622.16;;;18.31
19102;BMP280;9683;49.028;12.064;2023-05-19T09:40:48;97618.13;;;18.29
19102;BMP280;9683;49.028;12.064;2023-05-19T09:43:15;97614.88;;;18.32
19102;BMP280;9683;49.028;12.064;2023-05-19T09:45:43;97619.22;;;18.38
19102;BMP280;9683;49.028;12.064;2023-05-19T09:48:10;97615.72;;;18.38
19102;BMP280;9683;49.028;12.064;2023-05-19T09:50:36;97612.78;;;18.39
19102;BMP280;9683;49.028;12.064;2023-05-19T09:53:03;97612.25;;;18.42
19102;BMP280;9683;49.028;12.064;2023-05-19T09:55:29;97603.91;;;18.49
19102;BMP280;9683;49.028;12.064;2023-05-19T09:57:57;97611.22;;;18.53
19102;BMP280;9683;49.028;12.064;2023-05-19T10:00:25;97606.09;;;18.57
19102;BMP280;9683;49.028;12.064;2023-05-19T10:02:54;97605.88;;;18.63
19102;BMP280;9683;49.028;12.064;2023-05-19T10:05:21;97613.19;;;18.68
19102;BMP280;9683;49.028;12.064;2023-05-19T10:07:50;97604.81;;;18.74
19102;BMP280;9683;49.028;12.064;2023-05-19T10:10:17;97606.47;;;18.81
19102;BMP280;9683;49.028;12.064;2023-05-19T10:12:45;97604.84;;;18.85
19102;BMP280;9683;49.028;12.064;2023-05-19T10:15:13;97602.97;;;18.90
19102;BMP280;9683;49.028;12.064;2023-05-19T10:17:41;97605.13;;;18.93
19102;BMP280;9683;49.028;12.064;2023-05-19T10:20:11;97596.78;;;19.00
19102;BMP280;9683;49.028;12.064;2023-05-19T10:22:38;97600.56;;;19.04
19102;BMP280;9683;49.028;12.064;2023-05-19T10:25:06;97580.59;;;19.00
19102;BMP280;9683;49.028;12.064;2023-05-19T10:27:36;97597.88;;;19.14
19102;BMP280;9683;49.028;12.064;2023-05-19T10:30:07;97598.16;;;19.17
19102;BMP280;9683;49.028;12.064;2023-05-19T10:32:36;97592.19;;;19.20
19102;BMP280;9683;49.028;12.064;2023-05-19T10:35:23;97580.84;;;19.23
19102;BMP280;9683;49.028;12.064;2023-05-19T10:37:57;97559.81;;;19.10
19102;BMP280;9683;49.028;12.064;2023-05-19T10:40:27;97576.53;;;19.28
19102;BMP280;9683;49.028;12.064;2023-05-19T10:43:28;97568.72;;;19.31
19102;BMP280;9683;49.028;12.064;2023-05-19T10:45:56;97571.41;;;19.36
19102;BMP280;9683;49.028;12.064;2023-05-19T10:48:23;97571.69;;;19.40
19102;BMP280;9683;49.028;12.064;2023-05-19T10:50:53;97564.41;;;19.45
19102;BMP280;9683;49.028;12.064;2023-05-19T10:53:29;97557.69;;;19.43
19102;BMP280;9683;49.028;12.064;2023-05-19T10:55:56;97565.78;;;19.43
19102;BMP280;9683;49.028;12.064;2023-05-19T10:58:37;97558.19;;;19.50
19102;BMP280;9683;49.028;12.064;2023-05-19T11:01:06;97563.84;;;19.53
19102;BMP280;9683;49.028;12.064;2023-05-19T11:03:43;97554.41;;;19.56
19102;BMP280;9683;49.028;12.064;2023-05-19T11:06:27;97560.63;;;19.56
19102;BMP280;9683;49.028;12.064;2023-05-19T11:08:56;97572.78;;;19.59
19102;BMP280;9683;49.028;12.064;2023-05-19T11:11:25;97569.25;;;19.63
19102;BMP280;9683;49.028;12.064;2023-05-19T11:13:54;97561.16;;;19.68
19102;BMP280;9683;49.028;12.064;2023-05-19T11:16:27;97564.63;;;19.74
19102;BMP280;9683;49.028;12.064;2023-05-19T11:18:54;97554.91;;;19.78
19102;BMP280;9683;49.028;12.064;2023-05-19T11:21:22;97547.06;;;19.82
19102;BMP280;9683;49.028;12.064;2023-05-19T11:23:50;97543.31;;;19.78
19102;BMP280;9683;49.028;12.064;2023-05-19T11:26:41;97543.88;;;19.70
19102;BMP280;9683;49.028;12.064;2023-05-19T11:29:09;97531.97;;;19.65
19102;BMP280;9683;49.028;12.064;2023-05-19T11:31:36;97526.59;;;19.55
19102;BMP280;9683;49.028;12.064;2023-05-19T11:34:05;97542.50;;;19.62
19102;BMP280;9683;49.028;12.064;2023-05-19T11:36:35;97540.34;;;19.69
19102;BMP280;9683;49.028;12.064;2023-05-19T11:39:03;97541.13;;;19.75
19102;BMP280;9683;49.028;12.064;2023-05-19T11:41:30;97544.63;;;19.80
19102;BMP280;9683;49.028;12.064;2023-05-19T11:43:57;97540.84;;;19.86
19102;BMP280;9683;49.028;12.064;2023-05-19T11:46:23;97542.44;;;19.92
19102;BMP280;9683;49.028;12.064;2023-05-19T11:48:50;97539.72;;;19.97
19102;BMP280;9683;49.028;12.064;2023-05-19T11:51:20;97531.03;;;20.05
19102;BMP280;9683;49.028;12.064;2023-05-19T11:53:49;97539.94;;;20.11
19102;BMP280;9683;49.028;12.064;2023-05-19T11:56:15;97512.97;;;19.96
19102;BMP280;9683;49.028;12.064;2023-05-19T11:58:42;97538.56;;;20.13
19102;BMP280;9683;49.028;12.064;2023-05-19T12:01:08;97544.78;;;20.14
19102;BMP280;9683;49.028;12.064;2023-05-19T12:03:35;97543.97;;;20.13
19102;BMP280;9683;49.028;12.064;2023-05-19T12:06:02;97545.03;;;20.18
19102;BMP280;9683;49.028;12.064;2023-05-19T12:08:30;97539.06;;;20.21
19102;BMP280;9683;49.028;12.064;2023-05-19T12:10:58;97533.66;;;20.21
19102;BMP280;9683;49.028;12.064;2023-05-19T12:13:24;97538.56;;;20.13
19102;BMP280;9683;49.028;12.064;2023-05-19T12:15:51;97533.41;;;20.22
19102;BMP280;9683;49.028;12.064;2023-05-19T12:18:18;97531.50;;;20.28
19102;BMP280;9683;49.028;12.064;2023-05-19T12:20:45;97533.91;;;20.34
19102;BMP280;9683;49.028;12.064;2023-05-19T12:23:12;97542.00;;;20.39
19102;BMP280;9683;49.028;12.064;2023-05-19T12:25:39;97527.91;;;20.42
19102;BMP280;9683;49.028;12.064;2023-05-19T12:28:07;97527.38;;;20.45
19102;BMP280;9683;49.028;12.064;2023-05-19T12:30:33;97514.38;;;20.47
19102;BMP280;9683;49.028;12.064;2023-05-19T12:33:00;97511.88;;;20.56
19102;BMP280;9683;49.028;12.064;2023-05-19T12:35:27;97516.19;;;20.62
19102;BMP280;9683;49.028;12.064;2023-05-19T12:37:54;97502.91;;;20.66
19102;BMP280;9683;49.028;12.064;2023-05-19T12:40:20;97489.97;;;20.57
19102;BMP280;9683;49.028;12.064;2023-05-19T12:42:48;97507.91;;;20.82
19102;BMP280;9683;49.028;12.064;2023-05-19T12:45:19;97511.66;;;20.91
19102;BMP280;9683;49.028;12.064;2023-05-19T12:47:47;97505.09;;;20.97
19102;BMP280;9683;49.028;12.064;2023-05-19T12:50:14;97504.78;;;21.04
19102;BMP280;9683;49.028;12.064;2023-05-19T12:52:42;97502.53;;;21.11
19102;BMP280;9683;49.028;12.064;2023-05-19T12:55:09;97500.91;;;21.15
19102;BMP280;9683;49.028;12.064;2023-05-19T12:57:37;97501.19;;;21.14
19102;BMP280;9683;49.028;12.064;2023-05-19T13:00:06;97503.63;;;21.15
19102;BMP280;9683;49.028;12.064;2023-05-19T13:02:54;97510.84;;;21.25
19102;BMP280;9683;49.028;12.064;2023-05-19T13:05:21;97498.84;;;21.31
19102;BMP280;9683;49.028;12.064;2023-05-19T13:07:53;97505.28;;;21.40
19102;BMP280;9683;49.028;12.064;2023-05-19T13:10:19;97505.81;;;21.42
19102;BMP280;9683;49.028;12.064;2023-05-19T13:12:46;97505.75;;;21.47
19102;BMP280;9683;49.028;12.064;2023-05-19T13:15:13;97494.59;;;21.54
19102;BMP280;9683;49.028;12.064;2023-05-19T13:17:39;97491.25;;;21.62
19102;BMP280;9683;49.028;12.064;2023-05-19T13:20:08;97488.41;;;21.72
19102;BMP280;9683;49.028;12.064;2023-05-19T13:22:35;97483.47;;;21.79
19102;BMP280;9683;49.028;12.064;2023-05-19T13:25:02;97480.38;;;21.85
19102;BMP280;9683;49.028;12.064;2023-05-19T13:27:28;97483.31;;;21.89
19102;BMP280;9683;49.028;12.064;2023-05-19T13:29:55;97485.66;;;22.01
19102;BMP280;9683;49.028;12.064;2023-05-19T13:32:22;97481.50;;;22.08
19102;BMP280;9683;49.028;12.064;2023-05-19T13:34:48;97487.38;;;22.15
19102;BMP280;9683;49.028;12.064;2023-05-19T13:37:16;97485.69;;;22.19
19102;BMP280;9683;49.028;12.064;2023-05-19T13:39:43;97474.25;;;22.22
19102;BMP280;9683;49.028;12.064;2023-05-19T13:42:10;97472.28;;;22.28
19102;BMP280;9683;49.028;12.064;2023-05-19T13:44:36;97474.31;;;22.36
19102;BMP280;9683;49.028;12.064;2023-05-19T13:47:03;97483.50;;;22.40
19102;BMP280;9683;49.028;12.064;2023-05-19T13:49:30;97486.16;;;22.45
19102;BMP280;9683;49.028;12.064;2023-05-19T13:51:56;97493.13;;;22.51
19102;BMP280;9683;49.028;12.064;2023-05-19T13:54:25;97480.59;;;22.55
19102;BMP280;9683;49.028;12.064;2023-05-19T13:56:52;97491.13;;;22.57
19102;BMP280;9683;49.028;12.064;2023-05-19T13:59:18;97474.56;;;22.58
19102;BMP280;9683;49.028;12.064;2023-05-19T14:01:45;97478.28;;;22.62
19102;BMP280;9683;49.028;12.064;2023-05-19T14:04:12;97476.59;;;22.66
19102;BMP280;9683;49.028;12.064;2023-05-19T14:06:39;97473.88;;;22.66
19102;BMP280;9683;49.028;12.064;2023-05-19T14:09:05;97461.19;;;22.62
19102;BMP280;9683;49.028;12.064;2023-05-19T14:11:33;97469.13;;;22.77
19102;BMP280;9683;49.028;12.064;2023-05-19T14:14:00;97468.25;;;22.81